createdAt,value
2022-12-03T00:00:59.244Z,100351.69
2022-12-03T00:05:02.240Z,100356.91
2022-12-03T00:09:05.908Z,100357.84
2022-12-03T00:13:09.107Z,100348.25
2022-12-03T00:17:13.457Z,100346.50
2022-12-03T00:21:16.621Z,100343.03
2022-12-03T00:25:19.644Z,100333.56
2022-12-03T00:29:22.599Z,100337.03
2022-12-03T00:33:27.007Z,100335.31
2022-12-03T00:37:30.071Z,100338.91
2022-12-03T00:41:33.059Z,100331.97
2022-12-03T00:45:36.071Z,100337.19
2022-12-03T00:49:41.287Z,100337.19
2022-12-03T00:53:44.489Z,100346.72
2022-12-03T00:57:47.485Z,100344.19
2022-12-03T01:01:50.573Z,100348.59
2022-12-03T01:05:56.324Z,100348.59
2022-12-03T01:09:59.421Z,100356.47
2022-12-03T01:14:02.449Z,100353.72
2022-12-03T01:18:05.606Z,100352.06
2022-12-03T01:22:09.956Z,100357.31
2022-12-03T01:26:13.028Z,100357.41
2022-12-03T01:30:16.339Z,100350.47
2022-12-03T01:34:18.393Z,100358.34
2022-12-03T01:38:22.847Z,100360.09
2022-12-03T01:42:27.638Z,100353.19
2022-12-03T01:46:42.056Z,100349.75
2022-12-03T01:50:46.407Z,100349.00
2022-12-03T01:54:54.900Z,100342.13
2022-12-03T01:58:58.205Z,100345.69
2022-12-03T02:03:03.467Z,100347.47
2022-12-03T02:07:26.068Z,100346.63
2022-12-03T02:11:34.515Z,100345.03
2022-12-03T02:15:40.221Z,100333.88
2022-12-03T02:19:43.436Z,100339.00
2022-12-03T02:23:59.492Z,100350.31
2022-12-03T02:28:06.992Z,100341.50
2022-12-03T02:32:10.013Z,100355.38
2022-12-03T02:36:13.792Z,100345.94
2022-12-03T02:40:21.278Z,100345.22
2022-12-03T02:44:25.728Z,100350.44
2022-12-03T02:48:33.503Z,100351.38
2022-12-03T02:52:37.069Z,100353.16
2022-12-03T02:56:40.120Z,100353.25
2022-12-03T03:00:45.117Z,100348.03
2022-12-03T03:04:48.732Z,100340.28
2022-12-03T03:08:52.231Z,100332.47
2022-12-03T03:12:57.176Z,100345.53
2022-12-03T03:17:01.760Z,100338.56
2022-12-03T03:21:05.819Z,100337.69
2022-12-03T03:25:11.939Z,100334.22
2022-12-03T03:29:15.435Z,100326.47
2022-12-03T03:33:20.260Z,100328.97
2022-12-03T03:37:23.627Z,100344.66
2022-12-03T03:41:27.917Z,100349.97
2022-12-03T03:45:31.022Z,100344.00
2022-12-03T03:49:35.689Z,100348.44
2022-12-03T03:53:39.983Z,100345.03
2022-12-03T03:57:43.508Z,100351.25
2022-12-03T04:01:46.731Z,100341.72
2022-12-03T04:05:51.372Z,100341.72
2022-12-03T04:09:54.372Z,100344.31
2022-12-03T04:13:56.385Z,100334.84
2022-12-03T04:18:16.769Z,100345.31
2022-12-03T04:22:38.841Z,100341.09
2022-12-03T04:27:00.366Z,100340.16
2022-12-03T04:31:23.711Z,100346.13
2022-12-03T04:35:43.751Z,100340.84
2022-12-03T04:39:48.431Z,100325.34
2022-12-03T04:44:05.249Z,100309.03
2022-12-03T04:48:08.250Z,100315.78
2022-12-03T04:52:12.860Z,100333.03
2022-12-03T04:56:17.381Z,100334.84
2022-12-03T05:00:20.909Z,100324.41
2022-12-03T05:04:24.203Z,100320.88
2022-12-03T05:08:27.197Z,100320.88
2022-12-03T05:12:31.547Z,100327.03
2022-12-03T05:16:34.812Z,100325.22
2022-12-03T05:20:47.103Z,100326.06
2022-12-03T05:24:54.497Z,100322.53
2022-12-03T05:28:59.088Z,100339.03
2022-12-03T05:33:02.194Z,100340.84
2022-12-03T05:37:05.234Z,100331.41
2022-12-03T05:41:28.931Z,100333.16
2022-12-03T05:45:36.404Z,100337.50
2022-12-03T05:49:39.413Z,100343.72
2022-12-03T05:53:42.567Z,100340.16
2022-12-03T05:57:46.366Z,100350.59
2022-12-03T06:01:50.724Z,100352.25
2022-12-03T06:05:53.954Z,100343.47
2022-12-03T06:09:56.996Z,100345.19
2022-12-03T06:13:59.948Z,100350.34
2022-12-03T06:18:04.419Z,100348.63
2022-12-03T06:22:07.485Z,100341.56
2022-12-03T06:26:10.672Z,100338.09
2022-12-03T06:30:15.473Z,100345.03
2022-12-03T06:34:19.898Z,100354.59
2022-12-03T06:38:23.413Z,100356.31
2022-12-03T06:42:26.412Z,100354.53
2022-12-03T06:46:29.516Z,100351.13
2022-12-03T06:50:34.132Z,100349.38
2022-12-03T06:54:37.088Z,100350.22
2022-12-03T06:58:40.026Z,100359.00
2022-12-03T07:02:44.657Z,100364.19
2022-12-03T07:06:51.029Z,100367.75
2022-12-03T07:10:54.053Z,100365.22
2022-12-03T07:14:57.357Z,100358.28
2022-12-03T07:19:00.663Z,100360.88
2022-12-03T07:23:05.078Z,100361.75
2022-12-03T07:27:08.116Z,100361.88
2022-12-03T07:31:11.181Z,100359.28
2022-12-03T07:35:14.850Z,100360.16
2022-12-03T07:39:19.290Z,100360.22
2022-12-03T07:43:22.275Z,100359.47
2022-12-03T07:47:25.501Z,100359.47
2022-12-03T07:51:32.169Z,100359.47
2022-12-03T07:55:36.993Z,100364.69
2022-12-03T07:59:40.154Z,100362.88
2022-12-03T08:03:45.453Z,100364.63
2022-12-03T08:07:48.683Z,100358.75
2022-12-03T08:11:53.379Z,100363.00
2022-12-03T08:15:57.085Z,100368.22
2022-12-03T08:20:00.403Z,100373.44
2022-12-03T08:24:14.679Z,100371.84
2022-12-03T08:28:21.654Z,100372.72
2022-12-03T08:32:25.344Z,100379.72
2022-12-03T08:36:31.919Z,100368.56
2022-12-03T08:40:36.500Z,100377.28
2022-12-03T08:44:42.532Z,100370.47
2022-12-03T08:48:48.993Z,100379.31
2022-12-03T08:52:54.265Z,100368.09
2022-12-03T08:56:57.728Z,100371.63
2022-12-03T09:01:17.492Z,100372.69
2022-12-03T09:05:23.284Z,100378.16
2022-12-03T09:09:26.647Z,100373.06
2022-12-03T09:13:30.579Z,100382.66
2022-12-03T09:17:34.968Z,100381.84
2022-12-03T09:21:38.001Z,100373.13
2022-12-03T09:25:40.963Z,100368.69
2022-12-03T09:29:43.963Z,100364.31
2022-12-03T09:33:48.390Z,100377.38
2022-12-03T09:37:51.458Z,100361.72
2022-12-03T09:41:56.377Z,100360.03
2022-12-03T09:45:59.654Z,100351.28
2022-12-03T09:50:04.827Z,100355.66
2022-12-03T09:54:08.628Z,100354.88
2022-12-03T09:58:13.663Z,100357.44
2022-12-03T10:02:22.328Z,100361.91
2022-12-03T10:06:26.696Z,100355.88
2022-12-03T10:10:30.935Z,100341.47
2022-12-03T10:14:33.991Z,100342.38
2022-12-03T10:18:41.571Z,100356.22
2022-12-03T10:22:48.728Z,100339.69
2022-12-03T10:26:56.640Z,100345.66
2022-12-03T10:31:00.509Z,100355.22
2022-12-03T10:35:12.043Z,100342.38
2022-12-03T10:39:17.894Z,100346.84
2022-12-03T10:43:26.307Z,100338.59
2022-12-03T10:47:29.628Z,100333.44
2022-12-03T10:51:32.836Z,100329.16
2022-12-03T10:55:40.779Z,100316.94
2022-12-03T10:59:44.208Z,100326.44
2022-12-03T11:03:47.688Z,100313.50
2022-12-03T11:07:51.325Z,100305.81
2022-12-03T11:11:56.048Z,100306.72
2022-12-03T11:16:00.234Z,100291.09
2022-12-03T11:20:03.456Z,100291.09
2022-12-03T11:24:27.451Z,100284.06
2022-12-03T11:28:56.655Z,100298.06
2022-12-03T11:33:03.065Z,100290.16
2022-12-03T11:37:24.912Z,100292.69
2022-12-03T11:41:37.116Z,100299.47
2022-12-03T11:45:41.545Z,100289.81
2022-12-03T11:49:49.266Z,100287.09
2022-12-03T11:53:54.092Z,100288.75
2022-12-03T11:57:59.463Z,100293.16
2022-12-03T12:02:21.121Z,100288.09
2022-12-03T12:06:24.130Z,100276.75
2022-12-03T12:10:41.958Z,100276.06
2022-12-03T12:14:46.081Z,100275.88
2022-12-03T12:18:55.135Z,100275.84
2022-12-03T12:23:23.993Z,100274.16
2022-12-03T12:27:33.101Z,100268.25
2022-12-03T12:31:36.232Z,100268.25
2022-12-03T12:35:39.332Z,100262.09
2022-12-03T12:39:44.058Z,100264.66
2022-12-03T12:43:47.271Z,100265.69
2022-12-03T12:47:57.322Z,100264.88
2022-12-03T12:52:01.235Z,100261.53
2022-12-03T12:56:12.511Z,100251.22
2022-12-03T13:00:20.843Z,100252.91
2022-12-03T13:04:25.220Z,100245.00
2022-12-03T13:08:31.673Z,100238.91
2022-12-03T13:12:37.991Z,100247.69
2022-12-03T13:16:41.246Z,100249.53
2022-12-03T13:20:44.295Z,100246.84
2022-12-03T13:24:50.659Z,100246.84
2022-12-03T13:28:57.864Z,100251.09
2022-12-03T13:33:02.118Z,100254.69
2022-12-03T13:37:13.414Z,100254.88
2022-12-03T13:41:37.458Z,100247.91
2022-12-03T13:45:44.816Z,100247.78
2022-12-03T13:49:53.765Z,100252.16
2022-12-03T13:53:59.156Z,100257.28
2022-12-03T13:58:02.171Z,100244.13
2022-12-03T14:02:06.570Z,100245.06
2022-12-03T14:06:09.663Z,100253.78
2022-12-03T14:10:13.654Z,100248.50
2022-12-03T14:14:16.964Z,100248.50
2022-12-03T14:18:21.393Z,100258.09
2022-12-03T14:22:25.457Z,100256.31
2022-12-03T14:26:28.493Z,100261.53
2022-12-03T14:30:31.486Z,100266.75
2022-12-03T14:34:35.832Z,100268.53
2022-12-03T14:38:39.091Z,100263.31
2022-12-03T14:42:42.071Z,100266.00
2022-12-03T14:46:45.056Z,100266.88
2022-12-03T14:50:49.463Z,100265.13
2022-12-03T14:54:52.474Z,100261.53
2022-12-03T14:58:55.428Z,100253.63
2022-12-03T15:02:58.517Z,100240.38
2022-12-03T15:07:05.008Z,100257.81
2022-12-03T15:11:08.141Z,100259.63
2022-12-03T15:15:12.015Z,100269.06
2022-12-03T15:19:15.245Z,100285.53
2022-12-03T15:23:19.622Z,100281.34
2022-12-03T15:27:22.625Z,100279.66
2022-12-03T15:31:25.894Z,100278.88
2022-12-03T15:35:29.229Z,100280.31
2022-12-03T15:39:36.419Z,100276.13
2022-12-03T15:43:39.475Z,100278.75
2022-12-03T15:47:42.504Z,100284.81
2022-12-03T15:51:45.593Z,100281.28
2022-12-03T15:55:49.940Z,100282.16
2022-12-03T15:59:53.115Z,100276.13
2022-12-03T16:03:56.454Z,100270.09
2022-12-03T16:07:59.516Z,100264.09
2022-12-03T16:12:04.354Z,100270.34
2022-12-03T16:16:07.687Z,100274.75
2022-12-03T16:20:11.247Z,100270.41
2022-12-03T16:24:14.338Z,100266.97
2022-12-03T16:28:19.037Z,100266.19
2022-12-03T16:32:21.991Z,100265.41
2022-12-03T16:36:25.110Z,100269.06
2022-12-03T16:40:28.155Z,100268.13
2022-12-03T16:44:54.104Z,100259.50
2022-12-03T16:48:58.771Z,100260.38
2022-12-03T16:53:01.740Z,100260.38
2022-12-03T16:57:05.172Z,100259.56
2022-12-03T17:01:10.005Z,100257.06
2022-12-03T17:05:13.116Z,100258.81
2022-12-03T17:09:16.211Z,100260.91
2022-12-03T17:13:19.860Z,100263.50
2022-12-03T17:17:24.276Z,100266.13
2022-12-03T17:21:30.871Z,100269.66
2022-12-03T17:25:36.967Z,100244.31
2022-12-03T17:29:40.038Z,100256.47
2022-12-03T17:33:45.527Z,100243.44
2022-12-03T17:37:48.797Z,100252.03
2022-12-03T17:41:53.537Z,100260.75
2022-12-03T17:45:56.620Z,100261.66
2022-12-03T17:50:00.963Z,100268.66
2022-12-03T17:54:04.013Z,100265.28
2022-12-03T17:58:07.487Z,100271.28
2022-12-03T18:02:10.508Z,100270.47
2022-12-03T18:06:14.914Z,100267.91
2022-12-03T18:10:18.528Z,100281.06
2022-12-03T18:14:21.910Z,100283.78
2022-12-03T18:18:24.936Z,100277.75
2022-12-03T18:22:29.901Z,100271.72
2022-12-03T18:26:33.170Z,100269.19
2022-12-03T18:30:36.268Z,100267.50
2022-12-03T18:34:39.285Z,100262.28
2022-12-03T18:38:43.782Z,100267.47
2022-12-03T18:42:47.150Z,100261.41
2022-12-03T18:46:54.705Z,100251.81
2022-12-03T18:50:57.917Z,100254.41
2022-12-03T18:55:02.352Z,100259.66
2022-12-03T18:59:06.623Z,100250.97
2022-12-03T19:03:09.723Z,100259.66
2022-12-03T19:07:13.281Z,100269.28
2022-12-03T19:11:17.673Z,100270.16
2022-12-03T19:15:21.071Z,100275.38
2022-12-03T19:19:27.240Z,100280.75
2022-12-03T19:23:30.242Z,100264.28
2022-12-03T19:27:34.687Z,100270.38
2022-12-03T19:31:38.132Z,100286.84
2022-12-03T19:35:41.239Z,100275.47
2022-12-03T19:39:44.247Z,100289.50
2022-12-03T19:43:52.171Z,100294.78
2022-12-03T19:47:55.178Z,100297.41
2022-12-03T19:51:58.160Z,100310.56
2022-12-03T19:56:02.777Z,100300.22
2022-12-03T20:00:09.114Z,100306.38
2022-12-03T20:04:15.236Z,100303.78
2022-12-03T20:08:18.434Z,100300.31
2022-12-03T20:12:21.571Z,100295.00
2022-12-03T20:16:27.536Z,100299.38
2022-12-03T20:20:30.625Z,100288.88
2022-12-03T20:24:33.707Z,100308.06
2022-12-03T20:28:37.176Z,100307.09
2022-12-03T20:32:45.341Z,100293.16
2022-12-03T20:36:48.713Z,100305.34
2022-12-03T20:40:51.773Z,100305.41
2022-12-03T20:44:55.334Z,100302.84
2022-12-03T20:49:00.064Z,100300.22
2022-12-03T20:53:23.649Z,100300.22
2022-12-03T20:57:26.084Z,100300.22
2022-12-03T21:01:29.576Z,100299.31
2022-12-03T21:05:33.921Z,100303.78
2022-12-03T21:09:37.136Z,100291.53
2022-12-03T21:13:41.305Z,100283.69
2022-12-03T21:17:44.341Z,100295.94
2022-12-03T21:21:48.742Z,100298.53
2022-12-03T21:25:52.871Z,100296.88
2022-12-03T21:29:56.229Z,100290.84
2022-12-03T21:34:00.005Z,100288.28
2022-12-03T21:38:05.007Z,100285.78
2022-12-03T21:42:34.718Z,100288.47
2022-12-03T21:47:12.688Z,100286.66
2022-12-03T21:51:01.502Z,100277.00
2022-12-03T21:55:06.537Z,100293.59
2022-12-03T21:59:09.694Z,100288.47
2022-12-03T22:03:12.843Z,100298.94
2022-12-03T22:07:15.949Z,100280.69
2022-12-03T22:11:22.461Z,100281.56
2022-12-03T22:15:25.552Z,100267.66
2022-12-03T22:19:28.773Z,100265.91
2022-12-03T22:23:32.526Z,100266.66
2022-12-03T22:27:37.228Z,100265.75
2022-12-03T22:31:40.292Z,100264.00
2022-12-03T22:35:43.336Z,100264.16
2022-12-03T22:39:46.284Z,100266.72
2022-12-03T22:43:51.095Z,100261.44
2022-12-03T22:47:54.032Z,100253.66
2022-12-03T22:51:57.039Z,100241.59
2022-12-03T22:56:01.439Z,100248.56
2022-12-03T23:00:11.142Z,100250.34
2022-12-03T23:04:14.506Z,100245.22
2022-12-03T23:08:20.256Z,100242.69
2022-12-03T23:12:23.405Z,100238.31
2022-12-03T23:16:31.032Z,100250.50
2022-12-03T23:20:34.107Z,100246.22
2022-12-03T23:24:37.734Z,100241.88
2022-12-03T23:28:43.042Z,100240.19
2022-12-03T23:32:47.554Z,100232.31
2022-12-03T23:36:50.571Z,100233.22
2022-12-03T23:40:53.884Z,100234.97
2022-12-03T23:44:56.901Z,100225.44
2022-12-03T23:49:01.279Z,100229.03
2022-12-03T23:53:04.459Z,100214.19
2022-12-03T23:57:07.445Z,100224.72
